createdAt,value
2023-05-23T00:02:21.057Z,4.90
2023-05-23T00:12:24.418Z,4.00
2023-05-23T00:22:29.018Z,4.93
2023-05-23T00:32:32.244Z,4.32
2023-05-23T00:42:36.869Z,4.40
2023-05-23T00:52:40.582Z,4.50
2023-05-23T01:02:47.245Z,5.40
2023-05-23T01:13:03.209Z,5.18
2023-05-23T01:23:37.366Z,4.82
2023-05-23T01:33:42.873Z,4.85
2023-05-23T01:43:46.201Z,5.07
2023-05-23T01:53:51.321Z,5.03
2023-05-23T02:03:54.798Z,5.35
2023-05-23T02:13:59.350Z,5.15
2023-05-23T02:24:02.730Z,5.18
2023-05-23T02:34:07.362Z,5.38
2023-05-23T02:44:10.969Z,5.60
2023-05-23T02:54:16.034Z,5.50
2023-05-23T03:04:19.741Z,5.47
2023-05-23T03:14:24.390Z,5.60
2023-05-23T03:24:27.576Z,5.57
2023-05-23T03:34:33.071Z,5.80
2023-05-23T03:44:36.339Z,5.90
2023-05-23T03:54:43.652Z,5.38
2023-05-23T04:04:47.071Z,6.07
2023-05-23T04:14:52.501Z,5.90
2023-05-23T04:24:55.904Z,5.38
2023-05-23T04:35:02.182Z,5.60
2023-05-23T04:45:07.007Z,5.55
2023-05-23T04:55:34.593Z,4.82
2023-05-23T05:05:38.166Z,5.57
2023-05-23T05:15:42.894Z,5.20
2023-05-23T05:25:46.436Z,5.53
2023-05-23T05:35:52.378Z,5.30
2023-05-23T05:45:55.872Z,5.78
2023-05-23T05:56:01.238Z,5.65
2023-05-23T06:06:06.823Z,5.15
2023-05-23T06:16:12.057Z,5.53
2023-05-23T06:26:16.049Z,5.60
2023-05-23T06:36:20.758Z,5.38
2023-05-23T06:46:25.120Z,5.38
2023-05-23T06:56:29.779Z,5.43
2023-05-23T07:06:36.828Z,5.57
2023-05-23T07:16:43.265Z,6.63
2023-05-23T07:26:47.332Z,6.22
2023-05-23T07:36:52.785Z,6.75
2023-05-23T07:46:57.885Z,7.03
2023-05-23T07:57:03.237Z,7.10
2023-05-23T08:07:08.387Z,9.73
2023-05-23T08:17:25.023Z,7.85
2023-05-23T08:27:30.373Z,9.65
2023-05-23T08:37:39.933Z,9.95
2023-05-23T08:47:45.844Z,11.80
2023-05-23T08:57:52.434Z,15.02
2023-05-23T09:08:08.018Z,14.27
2023-05-23T09:18:13.347Z,14.63
2023-05-23T09:28:16.996Z,16.88
2023-05-23T09:38:22.053Z,15.13
2023-05-23T09:48:30.844Z,16.23
2023-05-23T09:58:37.296Z,15.77
2023-05-23T10:08:44.484Z,17.33
2023-05-23T10:18:56.489Z,17.08
2023-05-23T10:29:00.460Z,15.98
2023-05-23T10:39:10.923Z,15.82
2023-05-23T10:49:14.131Z,15.60
2023-05-23T10:59:28.646Z,15.20
2023-05-23T11:09:31.892Z,13.55
2023-05-23T11:19:36.596Z,14.55
2023-05-23T11:29:39.956Z,14.27
2023-05-23T11:39:44.512Z,15.55
2023-05-23T11:49:48.542Z,16.25
2023-05-23T11:59:53.191Z,15.65
2023-05-23T12:09:57.373Z,16.88
2023-05-23T12:20:02.086Z,17.77
2023-05-23T12:30:08.070Z,18.40
2023-05-23T12:40:14.737Z,16.27
2023-05-23T12:50:18.376Z,17.00
2023-05-23T13:00:23.679Z,15.90
2023-05-23T13:10:28.066Z,14.35
2023-05-23T13:20:34.326Z,12.85
2023-05-23T13:30:37.563Z,13.30
2023-05-23T13:40:42.384Z,13.85
2023-05-23T13:50:46.261Z,15.23
2023-05-23T14:00:50.911Z,13.65
2023-05-23T14:10:54.153Z,13.95
2023-05-23T14:20:58.753Z,14.27
2023-05-23T14:31:01.966Z,13.40
2023-05-23T14:41:06.727Z,15.27
2023-05-23T14:51:10.777Z,14.75
2023-05-23T15:01:16.577Z,15.95
2023-05-23T15:11:19.904Z,15.38
2023-05-23T15:21:24.487Z,15.65
2023-05-23T15:31:27.671Z,13.95
2023-05-23T15:41:32.326Z,14.95
2023-05-23T15:51:37.045Z,14.02
2023-05-23T16:01:42.553Z,13.27
2023-05-23T16:11:45.733Z,13.40
2023-05-23T16:21:50.424Z,13.55
2023-05-23T16:31:53.726Z,12.90
2023-05-23T16:42:00.350Z,12.35
2023-05-23T16:52:04.050Z,12.40
2023-05-23T17:02:10.920Z,11.05
2023-05-23T17:12:14.302Z,11.27
2023-05-23T17:22:18.923Z,12.07
2023-05-23T17:32:22.155Z,11.75
2023-05-23T17:42:27.886Z,11.80
2023-05-23T17:52:31.137Z,11.98
2023-05-23T18:02:35.821Z,11.75
2023-05-23T18:12:39.043Z,11.07
2023-05-23T18:22:43.642Z,12.00
2023-05-23T18:32:47.239Z,11.30
2023-05-23T18:42:51.964Z,11.50
2023-05-23T18:52:55.264Z,12.40
2023-05-23T19:03:00.035Z,12.77
2023-05-23T19:13:03.876Z,13.02
2023-05-23T19:23:08.519Z,12.70
2023-05-23T19:33:11.845Z,11.55
2023-05-23T19:43:17.170Z,10.45
2023-05-23T19:53:20.444Z,9.70
2023-05-23T20:03:25.050Z,9.98
2023-05-23T20:13:29.016Z,9.40
2023-05-23T20:23:33.847Z,10.25
2023-05-23T20:33:37.418Z,9.25
2023-05-23T20:43:44.737Z,10.57
2023-05-23T20:53:47.923Z,9.95
2023-05-23T21:03:52.451Z,10.27
2023-05-23T21:13:55.617Z,9.98
2023-05-23T21:24:00.216Z,8.75
2023-05-23T21:34:18.536Z,8.10
2023-05-23T21:44:27.520Z,6.97
2023-05-23T21:54:31.119Z,8.27
2023-05-23T22:04:35.805Z,7.97
2023-05-23T22:14:39.058Z,7.88
2023-05-23T22:24:43.565Z,8.18
2023-05-23T22:34:46.807Z,7.80
2023-05-23T22:44:51.439Z,7.50
2023-05-23T22:54:54.731Z,7.90
2023-05-23T23:05:01.081Z,7.13
2023-05-23T23:15:04.528Z,7.65
2023-05-23T23:25:10.794Z,7.90
2023-05-23T23:35:14.050Z,7.10
2023-05-23T23:45:18.746Z,6.78
2023-05-23T23:55:21.956Z,7.80
